MacKenzie, Canada
Current Conditions -  °F | °C
As of 8:00 AM on Sunday 21 Dec 2014 (Local Time) from CYQT Reporting Station
Overcast Overcast  
Wind Chill: 30°   Ceiling: 1800
Heat Index: 34°   Visibility: 10mi
Dew Point: 28°   Wind: 5mph
Humidity: 81%   Direction: 190°S
Pressure: 30.01"   Gusts: NA
Location:  48.55°N, 88.97°W
Report Text: CYQT 211300Z 19004KT 10SM OVC018 01/M02 A3001 RMK SC8 SLP172
Loading
Personal Weather Stations






























Interactive Weather Map New forecast layout! Learn more

10-Day Weather Forecast

Advertisements
Track Severe Weather on mobile